createdAt,value
2019-03-28T00:00:31.819Z,26.13
2019-03-28T00:03:02.069Z,26.60
2019-03-28T00:05:33.095Z,25.00
2019-03-28T00:08:03.404Z,26.87
2019-03-28T00:10:33.427Z,26.20
2019-03-28T00:13:03.080Z,24.40
2019-03-28T00:15:33.236Z,26.30
2019-03-28T00:18:03.107Z,25.67
2019-03-28T00:20:35.424Z,24.60
2019-03-28T00:23:21.016Z,26.00
2019-03-28T00:25:51.948Z,23.47
2019-03-28T00:28:21.681Z,25.63
2019-03-28T00:30:51.476Z,24.57
2019-03-28T00:33:21.207Z,24.50
2019-03-28T00:35:51.427Z,23.20
2019-03-28T00:38:21.345Z,23.57
2019-03-28T00:40:51.676Z,26.47
2019-03-28T00:43:21.440Z,23.60
2019-03-28T00:45:51.273Z,24.87
2019-03-28T00:48:20.987Z,23.97
2019-03-28T00:50:52.213Z,24.30
2019-03-28T00:53:21.899Z,25.00
2019-03-28T00:55:51.869Z,25.20
2019-03-28T00:58:21.549Z,24.00
2019-03-28T01:00:51.387Z,25.50
2019-03-28T01:03:21.077Z,26.13
2019-03-28T01:05:50.820Z,24.73
2019-03-28T01:08:20.570Z,25.03
2019-03-28T01:10:50.520Z,24.57
2019-03-28T01:13:20.755Z,25.30
2019-03-28T01:15:50.544Z,27.40
2019-03-28T01:18:20.342Z,28.23
2019-03-28T01:20:50.130Z,29.87
2019-03-28T01:23:19.822Z,28.30
2019-03-28T01:25:51.130Z,29.50
2019-03-28T01:28:20.870Z,30.60
2019-03-28T01:30:54.366Z,31.30
2019-03-28T01:33:24.982Z,33.10
2019-03-28T01:35:55.084Z,32.07
2019-03-28T01:38:25.012Z,34.27
2019-03-28T01:40:55.362Z,32.37
2019-03-28T01:43:43.977Z,33.63
2019-03-28T01:46:14.084Z,32.73
2019-03-28T01:48:43.791Z,34.03
2019-03-28T01:51:13.825Z,34.20
2019-03-28T01:53:43.579Z,34.33
2019-03-28T01:56:13.304Z,34.37
2019-03-28T01:58:45.383Z,35.63
2019-03-28T02:01:15.441Z,35.40
2019-03-28T02:03:47.979Z,35.13
2019-03-28T02:06:17.788Z,35.00
2019-03-28T02:08:47.527Z,36.00
2019-03-28T02:11:18.985Z,34.87
2019-03-28T02:13:48.714Z,35.57
2019-03-28T02:16:18.650Z,35.13
2019-03-28T02:18:49.003Z,34.10
2019-03-28T02:21:18.764Z,37.20
2019-03-28T02:23:48.569Z,35.33
2019-03-28T02:26:18.217Z,34.93
2019-03-28T02:28:48.037Z,35.70
2019-03-28T02:31:17.722Z,32.33
2019-03-28T02:33:48.917Z,33.73
2019-03-28T02:36:19.775Z,31.87
2019-03-28T02:38:50.870Z,30.67
2019-03-28T02:41:22.098Z,31.70
2019-03-28T02:43:51.997Z,31.27
2019-03-28T02:46:22.595Z,31.43
2019-03-28T02:49:03.627Z,31.90
2019-03-28T02:51:33.335Z,29.27
2019-03-28T02:54:03.494Z,29.43
2019-03-28T02:56:34.860Z,28.40
2019-03-28T02:59:07.243Z,28.73
2019-03-28T03:01:36.934Z,29.97
2019-03-28T03:04:08.543Z,28.43
2019-03-28T03:06:38.422Z,31.13
2019-03-28T03:09:11.943Z,30.37
2019-03-28T03:11:46.520Z,29.90
2019-03-28T03:14:18.259Z,31.13
2019-03-28T03:16:48.892Z,28.93
2019-03-28T03:19:18.989Z,28.07
2019-03-28T03:21:50.452Z,28.30
2019-03-28T03:24:20.118Z,26.50
2019-03-28T03:26:49.879Z,25.57
2019-03-28T03:29:21.427Z,26.77
2019-03-28T03:31:54.333Z,27.37
2019-03-28T03:34:24.103Z,27.63
2019-03-28T03:36:53.830Z,26.80
2019-03-28T03:39:23.548Z,25.77
2019-03-28T03:41:53.995Z,26.00
2019-03-28T03:44:23.747Z,25.73
2019-03-28T03:46:53.785Z,25.67
2019-03-28T03:49:25.230Z,25.83
2019-03-28T03:51:56.236Z,26.50
2019-03-28T03:54:27.106Z,27.33
2019-03-28T03:56:57.769Z,26.13
2019-03-28T03:59:29.588Z,24.00
2019-03-28T04:01:59.241Z,26.10
2019-03-28T04:04:31.331Z,26.50
2019-03-28T04:07:01.943Z,25.73
2019-03-28T04:09:31.826Z,26.60
2019-03-28T04:12:02.673Z,26.33
2019-03-28T04:14:32.304Z,23.43
2019-03-28T04:17:02.118Z,24.23
2019-03-28T04:19:32.434Z,25.60
2019-03-28T04:22:02.246Z,26.67
2019-03-28T04:24:33.749Z,25.37
2019-03-28T04:27:03.516Z,25.30
2019-03-28T04:29:33.400Z,26.33
2019-03-28T04:32:03.980Z,26.07
2019-03-28T04:34:33.720Z,26.80
2019-03-28T04:37:03.422Z,26.13
2019-03-28T04:39:33.153Z,28.20
2019-03-28T04:42:02.951Z,25.80
2019-03-28T04:44:32.715Z,28.13
2019-03-28T04:47:02.661Z,25.97
2019-03-28T04:49:32.642Z,27.00
2019-03-28T04:52:02.397Z,25.83
2019-03-28T04:54:32.223Z,25.67
2019-03-28T04:57:05.396Z,26.60
2019-03-28T04:59:35.265Z,26.20
2019-03-28T05:02:05.371Z,25.23
2019-03-28T05:04:37.673Z,25.40
2019-03-28T05:07:07.783Z,26.23
2019-03-28T05:09:37.448Z,24.37
2019-03-28T05:12:07.180Z,23.97
2019-03-28T05:14:36.885Z,23.60
2019-03-28T05:17:06.676Z,23.00
2019-03-28T05:19:36.422Z,20.93
2019-03-28T05:22:06.466Z,21.47
2019-03-28T05:24:37.388Z,20.80
2019-03-28T05:27:07.387Z,19.83
2019-03-28T05:29:37.208Z,21.80
2019-03-28T05:32:06.880Z,24.47
2019-03-28T05:34:36.612Z,26.77
2019-03-28T05:37:07.865Z,24.60
2019-03-28T05:39:37.603Z,25.77
2019-03-28T05:42:07.293Z,25.73
2019-03-28T05:44:37.011Z,25.40
2019-03-28T05:47:06.772Z,25.27
2019-03-28T05:49:36.378Z,24.90
2019-03-28T05:52:06.384Z,25.07
2019-03-28T05:54:36.069Z,25.13
2019-03-28T05:57:05.811Z,24.47
2019-03-28T05:59:37.693Z,24.87
2019-03-28T06:02:07.459Z,23.83
2019-03-28T06:04:37.438Z,22.73
2019-03-28T06:07:08.772Z,22.47
2019-03-28T06:09:40.217Z,20.23
2019-03-28T06:12:10.312Z,20.03
2019-03-28T06:14:40.140Z,20.97
2019-03-28T06:17:09.904Z,21.77
2019-03-28T06:19:40.544Z,19.47
2019-03-28T06:22:10.262Z,18.73
2019-03-28T06:24:39.958Z,20.20
2019-03-28T06:27:09.704Z,20.70
2019-03-28T06:29:39.395Z,21.43
2019-03-28T06:32:10.872Z,21.93
2019-03-28T06:34:44.130Z,22.17
2019-03-28T06:37:15.652Z,22.10
2019-03-28T06:39:45.416Z,22.40
2019-03-28T06:42:15.131Z,22.23
2019-03-28T06:44:45.870Z,21.93
2019-03-28T06:47:20.814Z,21.33
2019-03-28T06:49:52.355Z,22.60
2019-03-28T06:52:22.103Z,20.47
2019-03-28T06:54:53.961Z,20.30
2019-03-28T06:57:23.657Z,20.47
2019-03-28T06:59:57.169Z,19.20
2019-03-28T07:02:28.681Z,19.67
2019-03-28T07:04:58.689Z,19.60
2019-03-28T07:07:30.967Z,19.17
2019-03-28T07:10:02.642Z,19.27
2019-03-28T07:12:32.607Z,20.17
2019-03-28T07:15:02.284Z,19.30
2019-03-28T07:17:32.062Z,19.03
2019-03-28T07:20:01.803Z,19.23
2019-03-28T07:22:31.427Z,19.37
2019-03-28T07:25:01.262Z,21.03
2019-03-28T07:27:31.010Z,20.83
2019-03-28T07:30:00.812Z,19.40
2019-03-28T07:32:31.970Z,20.07
2019-03-28T07:35:01.656Z,19.63
2019-03-28T07:37:38.790Z,19.67
2019-03-28T07:40:09.048Z,21.27
2019-03-28T07:42:38.878Z,18.77
2019-03-28T07:45:12.423Z,18.93
2019-03-28T07:47:42.569Z,18.33
2019-03-28T07:50:12.796Z,19.03
2019-03-28T07:52:42.565Z,18.70
2019-03-28T07:55:12.498Z,19.47
2019-03-28T07:57:42.259Z,19.30
2019-03-28T08:00:13.266Z,18.83
2019-03-28T08:02:47.955Z,18.30
2019-03-28T08:05:18.208Z,18.73
2019-03-28T08:07:51.547Z,17.67
2019-03-28T08:10:23.299Z,17.80
2019-03-28T08:12:56.036Z,19.37
2019-03-28T08:15:26.213Z,17.73
2019-03-28T08:17:55.977Z,18.37
2019-03-28T08:20:27.563Z,17.83
2019-03-28T08:22:57.508Z,18.87
2019-03-28T08:25:27.807Z,18.17
2019-03-28T08:27:59.022Z,18.33
2019-03-28T08:30:39.664Z,19.60
2019-03-28T08:33:09.646Z,20.27
2019-03-28T08:35:40.197Z,18.53
2019-03-28T08:38:11.413Z,18.10
2019-03-28T08:40:43.028Z,18.17
2019-03-28T08:43:13.120Z,17.67
2019-03-28T08:45:42.921Z,18.10
2019-03-28T08:48:12.704Z,17.47
2019-03-28T08:50:44.553Z,18.17
2019-03-28T08:53:14.609Z,17.70
2019-03-28T08:55:46.237Z,17.27
2019-03-28T08:58:17.075Z,17.47
2019-03-28T09:00:52.427Z,16.97
2019-03-28T09:03:19.938Z,13.40
2019-03-28T09:05:49.803Z,14.30
2019-03-28T09:08:19.584Z,15.40
2019-03-28T09:10:49.413Z,13.87
2019-03-28T09:13:19.158Z,9.23
2019-03-28T09:15:48.965Z,11.50
2019-03-28T09:18:19.801Z,13.93
2019-03-28T09:20:51.378Z,14.20
2019-03-28T09:23:21.111Z,12.37
2019-03-28T09:25:51.372Z,14.63
2019-03-28T09:28:22.915Z,12.13
2019-03-28T09:30:53.568Z,8.03
2019-03-28T09:33:23.612Z,8.20
2019-03-28T09:35:54.384Z,8.47
2019-03-28T09:38:24.116Z,11.80
2019-03-28T09:40:53.865Z,10.77
2019-03-28T09:43:25.695Z,10.40
2019-03-28T09:46:00.207Z,8.07
2019-03-28T09:48:29.782Z,6.93
2019-03-28T09:51:00.385Z,5.40
2019-03-28T09:53:31.492Z,5.83
2019-03-28T09:56:01.520Z,5.70
2019-03-28T09:58:31.186Z,5.10
2019-03-28T10:01:03.004Z,5.47
2019-03-28T10:03:32.378Z,5.67
2019-03-28T10:06:02.163Z,5.50
2019-03-28T10:08:34.414Z,5.93
2019-03-28T10:11:04.564Z,5.87
2019-03-28T10:13:35.444Z,7.00
2019-03-28T10:16:06.668Z,6.93
2019-03-28T10:18:36.444Z,7.00
2019-03-28T10:21:06.488Z,10.27
2019-03-28T10:23:39.712Z,10.77
2019-03-28T10:26:09.945Z,10.80
2019-03-28T10:28:39.714Z,10.40
2019-03-28T10:31:16.490Z,10.40
2019-03-28T10:33:42.049Z,12.10
2019-03-28T10:36:11.717Z,13.87
2019-03-28T10:38:41.705Z,14.10
2019-03-28T10:41:13.733Z,14.70
2019-03-28T10:43:43.484Z,12.60
2019-03-28T10:46:13.159Z,13.63
2019-03-28T10:48:42.761Z,14.77
2019-03-28T10:51:12.539Z,12.10
2019-03-28T10:53:43.841Z,10.37
2019-03-28T10:56:21.919Z,8.80
2019-03-28T10:58:47.880Z,8.33
2019-03-28T11:01:32.514Z,8.30
2019-03-28T11:03:49.490Z,7.47
2019-03-28T11:06:19.513Z,7.70
2019-03-28T11:08:49.190Z,6.83
2019-03-28T11:11:18.839Z,6.23
2019-03-28T11:13:48.618Z,6.57
2019-03-28T11:16:18.450Z,7.07
2019-03-28T11:18:48.202Z,5.80
2019-03-28T11:21:19.120Z,5.63
2019-03-28T11:23:48.827Z,5.70
2019-03-28T11:26:18.610Z,6.57
2019-03-28T11:28:48.297Z,5.67
2019-03-28T11:31:18.217Z,5.00
2019-03-28T11:33:47.928Z,3.87
2019-03-28T11:36:17.960Z,4.33
2019-03-28T11:38:48.018Z,3.73
2019-03-28T11:41:18.515Z,3.13
2019-03-28T11:43:50.119Z,3.03
2019-03-28T11:46:19.853Z,3.27
2019-03-28T11:48:49.620Z,2.90
2019-03-28T11:51:19.245Z,2.90
2019-03-28T11:53:49.691Z,3.20
2019-03-28T11:56:19.611Z,4.03
2019-03-28T11:58:51.599Z,3.97
2019-03-28T12:01:21.364Z,5.30
2019-03-28T12:03:52.029Z,7.73
2019-03-28T12:06:21.761Z,6.90
2019-03-28T12:08:51.498Z,5.90
2019-03-28T12:11:21.300Z,6.60
2019-03-28T12:13:53.388Z,7.20
2019-03-28T12:16:23.138Z,5.10
2019-03-28T12:18:54.946Z,4.63
2019-03-28T12:21:26.232Z,4.73
2019-03-28T12:23:55.893Z,3.97
2019-03-28T12:26:27.621Z,4.07
2019-03-28T12:28:59.651Z,5.20
2019-03-28T12:31:29.424Z,4.37
2019-03-28T12:34:00.220Z,3.80
2019-03-28T12:36:29.950Z,3.63
2019-03-28T12:39:00.720Z,3.70
2019-03-28T12:41:32.852Z,4.63
2019-03-28T12:44:02.606Z,3.73
2019-03-28T12:46:32.333Z,5.20
2019-03-28T12:49:02.185Z,4.60
2019-03-28T12:51:32.020Z,3.63
2019-03-28T12:54:02.601Z,3.90
2019-03-28T12:56:32.546Z,3.77
2019-03-28T12:59:02.441Z,3.37
2019-03-28T13:01:32.238Z,4.13
2019-03-28T13:04:04.813Z,3.83
2019-03-28T13:06:34.875Z,3.30
2019-03-28T13:09:09.759Z,3.10
2019-03-28T13:11:39.651Z,3.23
2019-03-28T13:14:09.683Z,3.83
2019-03-28T13:16:39.376Z,2.63
2019-03-28T13:19:09.071Z,2.43
2019-03-28T13:21:38.774Z,2.57
2019-03-28T13:24:08.543Z,1.60
2019-03-28T13:26:38.316Z,1.80
2019-03-28T13:29:08.081Z,2.03
2019-03-28T13:31:37.901Z,2.30
2019-03-28T13:34:07.665Z,2.80
2019-03-28T13:36:37.297Z,2.80
2019-03-28T13:39:08.013Z,2.40
2019-03-28T13:41:37.703Z,2.80
2019-03-28T13:44:07.320Z,3.30
2019-03-28T13:46:37.415Z,3.80
2019-03-28T13:49:07.090Z,3.93
2019-03-28T13:51:36.729Z,3.70
2019-03-28T13:54:06.538Z,3.30
2019-03-28T13:56:38.565Z,3.40
2019-03-28T13:59:08.270Z,3.30
2019-03-28T14:01:38.192Z,3.87
2019-03-28T14:04:07.927Z,3.30
2019-03-28T14:06:39.388Z,3.93
2019-03-28T14:09:09.112Z,4.13
2019-03-28T14:11:38.778Z,4.47
2019-03-28T14:14:08.766Z,3.63
2019-03-28T14:16:38.416Z,3.33
2019-03-28T14:19:08.419Z,3.17
2019-03-28T14:21:38.063Z,4.97
2019-03-28T14:24:07.703Z,3.63
2019-03-28T14:26:37.639Z,2.97
2019-03-28T14:29:07.440Z,4.03
2019-03-28T14:31:37.209Z,3.70
2019-03-28T14:34:09.373Z,3.20
2019-03-28T14:36:39.006Z,3.87
2019-03-28T14:39:09.358Z,2.90
2019-03-28T14:41:39.133Z,2.80
2019-03-28T14:44:08.793Z,2.90
2019-03-28T14:46:38.443Z,3.10
2019-03-28T14:49:10.715Z,3.50
2019-03-28T14:51:41.670Z,9.20
2019-03-28T14:54:13.525Z,7.33
2019-03-28T14:56:46.096Z,3.80
2019-03-28T14:59:16.579Z,3.50
2019-03-28T15:01:46.212Z,3.67
2019-03-28T15:04:15.878Z,3.73
2019-03-28T15:06:46.890Z,3.50
2019-03-28T15:09:16.630Z,3.77
2019-03-28T15:11:46.300Z,4.20
2019-03-28T15:14:15.932Z,4.63
2019-03-28T15:16:45.728Z,3.93
2019-03-28T15:19:15.388Z,3.87
2019-03-28T15:21:45.099Z,3.43
2019-03-28T15:24:14.796Z,3.70
2019-03-28T15:26:44.715Z,2.93
2019-03-28T15:29:15.788Z,3.33
2019-03-28T15:31:45.531Z,3.00
2019-03-28T15:34:15.355Z,3.13
2019-03-28T15:36:46.450Z,3.13
2019-03-28T15:39:17.622Z,3.83
2019-03-28T15:41:47.325Z,3.67
2019-03-28T15:44:18.357Z,3.70
2019-03-28T15:46:48.056Z,4.20
2019-03-28T15:49:17.711Z,4.80
2019-03-28T15:51:47.363Z,5.67
2019-03-28T15:54:17.013Z,5.90
2019-03-28T15:56:46.987Z,7.53
2019-03-28T15:59:18.855Z,6.00
2019-03-28T16:01:48.657Z,5.33
2019-03-28T16:04:18.409Z,11.87
2019-03-28T16:06:48.113Z,19.30
2019-03-28T16:09:20.570Z,7.67
2019-03-28T16:12:01.996Z,7.50
2019-03-28T16:14:21.657Z,5.50
2019-03-28T16:16:52.988Z,6.00
2019-03-28T16:19:24.989Z,5.53
2019-03-28T16:21:56.116Z,5.27
2019-03-28T16:24:27.437Z,5.70
2019-03-28T16:26:59.947Z,5.40
2019-03-28T16:29:32.179Z,6.00
2019-03-28T16:32:01.956Z,5.50
2019-03-28T16:34:31.598Z,5.70
2019-03-28T16:37:05.192Z,6.23
2019-03-28T16:39:35.110Z,6.27
2019-03-28T16:42:04.924Z,6.40
2019-03-28T16:44:35.902Z,7.23
2019-03-28T16:47:07.918Z,7.10
2019-03-28T16:49:41.252Z,6.77
2019-03-28T16:52:12.350Z,7.50
2019-03-28T16:54:42.342Z,6.83
2019-03-28T16:57:12.536Z,6.63
2019-03-28T16:59:42.210Z,6.67
2019-03-28T17:02:11.906Z,7.67
2019-03-28T17:04:43.827Z,7.90
2019-03-28T17:07:17.866Z,8.10
2019-03-28T17:09:47.709Z,7.47
2019-03-28T17:12:17.709Z,8.80
2019-03-28T17:14:47.370Z,9.23
2019-03-28T17:17:17.256Z,9.20
2019-03-28T17:19:47.280Z,10.70
2019-03-28T17:22:16.985Z,10.13
2019-03-28T17:24:46.652Z,10.07
2019-03-28T17:27:19.671Z,10.57
2019-03-28T17:29:49.481Z,11.33
2019-03-28T17:32:22.599Z,11.90
2019-03-28T17:34:52.375Z,11.40
2019-03-28T17:37:22.063Z,10.80
2019-03-28T17:39:51.868Z,11.77
2019-03-28T17:42:21.601Z,10.80
2019-03-28T17:44:51.285Z,11.20
2019-03-28T17:47:23.299Z,11.77
2019-03-28T17:49:56.026Z,11.33
2019-03-28T17:52:25.798Z,12.53
2019-03-28T17:54:55.578Z,11.83
2019-03-28T17:57:25.238Z,12.33
2019-03-28T17:59:54.988Z,11.73
2019-03-28T18:02:25.985Z,12.47
2019-03-28T18:05:08.442Z,12.37
2019-03-28T18:07:28.097Z,12.63
2019-03-28T18:09:58.107Z,12.17
2019-03-28T18:12:29.385Z,13.37
2019-03-28T18:14:59.080Z,12.60
2019-03-28T18:17:28.789Z,13.87
2019-03-28T18:19:58.722Z,12.67
2019-03-28T18:22:32.111Z,12.80
2019-03-28T18:25:01.786Z,12.50
2019-03-28T18:27:31.549Z,13.27
2019-03-28T18:30:05.041Z,12.57
2019-03-28T18:32:34.483Z,13.57
2019-03-28T18:35:07.702Z,13.43
2019-03-28T18:37:36.847Z,13.70
2019-03-28T18:40:07.049Z,13.63
2019-03-28T18:42:36.700Z,14.17
2019-03-28T18:45:07.808Z,13.53
2019-03-28T18:47:37.900Z,14.53
2019-03-28T18:50:08.231Z,14.57
2019-03-28T18:52:37.970Z,14.73
2019-03-28T18:55:10.429Z,16.40
2019-03-28T18:57:41.416Z,15.47
2019-03-28T19:00:12.072Z,15.57
2019-03-28T19:02:41.903Z,15.30
2019-03-28T19:05:19.690Z,16.37
2019-03-28T19:07:45.774Z,16.67
2019-03-28T19:10:16.031Z,15.90
2019-03-28T19:12:47.810Z,15.23
2019-03-28T19:15:17.871Z,14.83
2019-03-28T19:17:47.567Z,14.33
2019-03-28T19:20:18.590Z,16.23
2019-03-28T19:22:50.247Z,16.13
2019-03-28T19:25:19.562Z,15.70
2019-03-28T19:27:49.292Z,15.60
2019-03-28T19:30:31.859Z,16.60
2019-03-28T19:33:02.104Z,15.17
2019-03-28T19:35:33.534Z,14.30
2019-03-28T19:38:04.481Z,14.93
2019-03-28T19:40:35.037Z,15.77
2019-03-28T19:43:04.773Z,14.87
2019-03-28T19:45:38.863Z,15.13
2019-03-28T19:48:10.403Z,17.20
2019-03-28T19:50:41.821Z,16.80
2019-03-28T19:53:12.154Z,18.33
2019-03-28T19:55:42.007Z,17.80
2019-03-28T19:58:13.605Z,18.03
2019-03-28T20:00:43.988Z,18.07
2019-03-28T20:03:13.958Z,18.80
2019-03-28T20:05:47.902Z,19.33
2019-03-28T20:08:17.994Z,20.93
2019-03-28T20:10:47.298Z,19.27
2019-03-28T20:13:18.532Z,18.70
2019-03-28T20:15:48.222Z,18.43
2019-03-28T20:18:17.888Z,18.23
2019-03-28T20:20:47.460Z,16.17
2019-03-28T20:23:17.154Z,16.00
2019-03-28T20:25:46.834Z,15.50
2019-03-28T20:28:16.644Z,16.47
2019-03-28T20:30:46.390Z,16.50
2019-03-28T20:33:16.370Z,16.20
2019-03-28T20:36:01.909Z,16.87
2019-03-28T20:38:19.079Z,17.47
2019-03-28T20:40:53.241Z,19.03
2019-03-28T20:43:27.405Z,18.57
2019-03-28T20:45:57.145Z,18.63
2019-03-28T20:48:28.280Z,19.83
2019-03-28T20:50:58.078Z,21.43
2019-03-28T20:53:29.060Z,20.67
2019-03-28T20:56:02.031Z,18.97
2019-03-28T20:58:31.699Z,20.57
2019-03-28T21:01:05.082Z,20.60
2019-03-28T21:03:35.541Z,22.30
2019-03-28T21:06:15.220Z,21.37
2019-03-28T21:08:36.708Z,20.83
2019-03-28T21:11:07.411Z,20.80
2019-03-28T21:13:37.120Z,20.93
2019-03-28T21:16:06.744Z,20.27
2019-03-28T21:18:36.409Z,20.07
2019-03-28T21:21:06.090Z,20.10
2019-03-28T21:23:35.739Z,19.40
2019-03-28T21:26:05.722Z,21.60
2019-03-28T21:28:46.950Z,22.30
2019-03-28T21:31:11.484Z,20.73
2019-03-28T21:33:41.110Z,20.47
2019-03-28T21:36:10.799Z,20.93
2019-03-28T21:38:40.500Z,22.30
2019-03-28T21:41:10.832Z,19.40
2019-03-28T21:43:40.517Z,25.63
2019-03-28T21:46:10.656Z,28.87
2019-03-28T21:48:40.673Z,28.57
2019-03-28T21:51:11.705Z,28.90
2019-03-28T21:53:41.641Z,31.23
2019-03-28T21:56:14.124Z,29.33
2019-03-28T21:58:44.804Z,30.57
2019-03-28T22:01:15.605Z,29.73
2019-03-28T22:03:45.616Z,32.40
2019-03-28T22:06:16.245Z,32.40
2019-03-28T22:08:45.941Z,32.03
2019-03-28T22:11:17.972Z,32.93
2019-03-28T22:13:47.898Z,33.83
2019-03-28T22:16:19.975Z,31.37
2019-03-28T22:18:49.619Z,32.37
2019-03-28T22:21:19.329Z,33.97
2019-03-28T22:23:49.023Z,33.13
2019-03-28T22:26:18.726Z,30.73
2019-03-28T22:28:49.915Z,29.20
2019-03-28T22:31:19.572Z,29.67
2019-03-28T22:33:49.528Z,30.03
2019-03-28T22:36:20.419Z,29.97
2019-03-28T22:38:50.636Z,30.13
2019-03-28T22:41:22.825Z,29.30
2019-03-28T22:43:55.904Z,26.17
2019-03-28T22:46:25.950Z,24.60
2019-03-28T22:48:56.461Z,26.27
2019-03-28T22:51:31.572Z,26.27
2019-03-28T22:54:00.263Z,25.60
2019-03-28T22:56:29.990Z,26.37
2019-03-28T22:59:00.976Z,33.63
2019-03-28T23:01:30.813Z,30.60
2019-03-28T23:04:00.658Z,26.87
2019-03-28T23:06:31.804Z,28.97
2019-03-28T23:09:01.488Z,31.00
2019-03-28T23:11:31.150Z,31.00
2019-03-28T23:14:00.877Z,26.00
2019-03-28T23:16:31.539Z,24.03
2019-03-28T23:19:01.425Z,19.50
2019-03-28T23:21:31.492Z,21.00
2019-03-28T23:24:02.005Z,17.53
2019-03-28T23:26:31.615Z,17.47
2019-03-28T23:29:01.353Z,15.90
2019-03-28T23:31:30.991Z,15.40
2019-03-28T23:34:01.554Z,15.97
2019-03-28T23:36:31.346Z,13.87
2019-03-28T23:39:02.085Z,13.27
2019-03-28T23:41:33.793Z,12.23
2019-03-28T23:44:03.427Z,12.80
2019-03-28T23:46:33.981Z,12.13
2019-03-28T23:49:03.792Z,12.77
2019-03-28T23:51:33.674Z,12.20
2019-03-28T23:54:04.540Z,10.97
2019-03-28T23:56:34.272Z,11.30
2019-03-28T23:59:03.980Z,9.83
